sensor_id;sensor_type;location;lat;lon;timestamp;P1;durP1;ratioP1;P2;durP2;ratioP2
62790;SDS011;48830;53.426;10.300;2022-12-18T00:00:40;20.27;;;12.03;;
62790;SDS011;48830;53.426;10.300;2022-12-18T00:03:06;22.93;;;12.87;;
62790;SDS011;48830;53.426;10.300;2022-12-18T00:05:32;24.07;;;12.47;;
62790;SDS011;48830;53.426;10.300;2022-12-18T00:07:58;20.87;;;11.83;;
62790;SDS011;48830;53.426;10.300;2022-12-18T00:10:23;23.77;;;13.30;;
62790;SDS011;48830;53.426;10.300;2022-12-18T00:12:49;22.60;;;12.13;;
62790;SDS011;48830;53.426;10.300;2022-12-18T00:15:14;22.13;;;12.03;;
62790;SDS011;48830;53.426;10.300;2022-12-18T00:17:40;22.27;;;11.93;;
62790;SDS011;48830;53.426;10.300;2022-12-18T00:20:05;22.60;;;12.23;;
62790;SDS011;48830;53.426;10.300;2022-12-18T00:22:32;21.83;;;12.13;;
62790;SDS011;48830;53.426;10.300;2022-12-18T00:24:57;21.73;;;11.63;;
62790;SDS011;48830;53.426;10.300;2022-12-18T00:27:22;20.53;;;11.10;;
62790;SDS011;48830;53.426;10.300;2022-12-18T00:29:48;24.40;;;11.77;;
62790;SDS011;48830;53.426;10.300;2022-12-18T00:32:14;25.57;;;13.80;;
62790;SDS011;48830;53.426;10.300;2022-12-18T00:34:41;33.03;;;13.37;;
62790;SDS011;48830;53.426;10.300;2022-12-18T00:37:07;28.73;;;13.13;;
62790;SDS011;48830;53.426;10.300;2022-12-18T00:39:33;22.87;;;12.63;;
62790;SDS011;48830;53.426;10.300;2022-12-18T00:41:58;19.40;;;11.67;;
62790;SDS011;48830;53.426;10.300;2022-12-18T00:44:42;18.77;;;11.20;;
62790;SDS011;48830;53.426;10.300;2022-12-18T00:47:07;20.17;;;11.27;;
62790;SDS011;48830;53.426;10.300;2022-12-18T00:49:33;22.77;;;10.73;;
62790;SDS011;48830;53.426;10.300;2022-12-18T00:51:58;21.83;;;11.03;;
62790;SDS011;48830;53.426;10.300;2022-12-18T00:54:24;20.33;;;10.53;;
62790;SDS011;48830;53.426;10.300;2022-12-18T00:56:49;23.57;;;11.43;;
62790;SDS011;48830;53.426;10.300;2022-12-18T00:59:16;18.40;;;10.70;;
62790;SDS011;48830;53.426;10.300;2022-12-18T01:01:42;22.07;;;10.43;;
62790;SDS011;48830;53.426;10.300;2022-12-18T01:04:08;20.30;;;10.93;;
62790;SDS011;48830;53.426;10.300;2022-12-18T01:06:33;20.40;;;11.20;;
62790;SDS011;48830;53.426;10.300;2022-12-18T01:08:59;21.83;;;11.53;;
62790;SDS011;48830;53.426;10.300;2022-12-18T01:11:24;20.47;;;11.10;;
62790;SDS011;48830;53.426;10.300;2022-12-18T01:13:51;20.83;;;11.33;;
62790;SDS011;48830;53.426;10.300;2022-12-18T01:16:17;20.93;;;11.37;;
62790;SDS011;48830;53.426;10.300;2022-12-18T01:18:43;20.47;;;11.67;;
62790;SDS011;48830;53.426;10.300;2022-12-18T01:21:10;19.17;;;11.50;;
62790;SDS011;48830;53.426;10.300;2022-12-18T01:23:37;21.57;;;11.23;;
62790;SDS011;48830;53.426;10.300;2022-12-18T01:26:10;20.33;;;10.93;;
62790;SDS011;48830;53.426;10.300;2022-12-18T01:28:37;19.33;;;10.43;;
62790;SDS011;48830;53.426;10.300;2022-12-18T01:31:10;19.93;;;11.03;;
62790;SDS011;48830;53.426;10.300;2022-12-18T01:33:42;20.83;;;10.30;;
62790;SDS011;48830;53.426;10.300;2022-12-18T01:36:11;18.67;;;10.37;;
62790;SDS011;48830;53.426;10.300;2022-12-18T01:38:40;16.23;;;9.73;;
62790;SDS011;48830;53.426;10.300;2022-12-18T01:41:06;20.23;;;10.63;;
62790;SDS011;48830;53.426;10.300;2022-12-18T01:46:15;20.70;;;10.93;;
62790;SDS011;48830;53.426;10.300;2022-12-18T01:48:44;18.60;;;10.37;;
62790;SDS011;48830;53.426;10.300;2022-12-18T01:51:11;19.73;;;10.50;;
62790;SDS011;48830;53.426;10.300;2022-12-18T01:53:38;18.93;;;10.10;;
62790;SDS011;48830;53.426;10.300;2022-12-18T01:56:05;17.97;;;10.20;;
62790;SDS011;48830;53.426;10.300;2022-12-18T02:01:20;18.20;;;10.83;;
62790;SDS011;48830;53.426;10.300;2022-12-18T02:03:49;16.53;;;10.00;;
62790;SDS011;48830;53.426;10.300;2022-12-18T02:06:16;17.50;;;9.90;;
62790;SDS011;48830;53.426;10.300;2022-12-18T02:08:48;16.90;;;9.50;;
62790;SDS011;48830;53.426;10.300;2022-12-18T02:13:55;20.90;;;10.43;;
62790;SDS011;48830;53.426;10.300;2022-12-18T02:17:01;21.47;;;9.97;;
62790;SDS011;48830;53.426;10.300;2022-12-18T02:22:44;17.93;;;9.57;;
62790;SDS011;48830;53.426;10.300;2022-12-18T02:25:13;20.20;;;9.30;;
62790;SDS011;48830;53.426;10.300;2022-12-18T02:27:47;18.63;;;10.30;;
62790;SDS011;48830;53.426;10.300;2022-12-18T02:30:15;17.83;;;9.83;;
62790;SDS011;48830;53.426;10.300;2022-12-18T02:32:43;18.40;;;9.40;;
62790;SDS011;48830;53.426;10.300;2022-12-18T02:35:22;17.27;;;9.40;;
62790;SDS011;48830;53.426;10.300;2022-12-18T02:37:52;19.00;;;9.73;;
62790;SDS011;48830;53.426;10.300;2022-12-18T02:40:19;17.47;;;10.10;;
62790;SDS011;48830;53.426;10.300;2022-12-18T02:42:46;18.80;;;9.97;;
62790;SDS011;48830;53.426;10.300;2022-12-18T02:45:15;20.17;;;10.47;;
62790;SDS011;48830;53.426;10.300;2022-12-18T02:47:42;18.80;;;9.30;;
62790;SDS011;48830;53.426;10.300;2022-12-18T02:53:17;16.67;;;9.80;;
62790;SDS011;48830;53.426;10.300;2022-12-18T02:58:30;19.30;;;10.50;;
62790;SDS011;48830;53.426;10.300;2022-12-18T03:03:41;19.33;;;10.60;;
62790;SDS011;48830;53.426;10.300;2022-12-18T03:06:35;20.03;;;10.63;;
62790;SDS011;48830;53.426;10.300;2022-12-18T03:09:03;20.00;;;11.27;;
62790;SDS011;48830;53.426;10.300;2022-12-18T03:11:35;19.73;;;10.13;;
62790;SDS011;48830;53.426;10.300;2022-12-18T03:14:23;21.83;;;11.70;;
62790;SDS011;48830;53.426;10.300;2022-12-18T03:16:54;22.20;;;10.53;;
62790;SDS011;48830;53.426;10.300;2022-12-18T03:19:25;20.50;;;11.33;;
62790;SDS011;48830;53.426;10.300;2022-12-18T03:21:57;18.40;;;10.40;;
62790;SDS011;48830;53.426;10.300;2022-12-18T03:24:31;23.40;;;10.80;;
62790;SDS011;48830;53.426;10.300;2022-12-18T03:27:00;18.87;;;10.17;;
62790;SDS011;48830;53.426;10.300;2022-12-18T03:29:31;20.10;;;10.17;;
62790;SDS011;48830;53.426;10.300;2022-12-18T03:32:04;19.53;;;10.20;;
62790;SDS011;48830;53.426;10.300;2022-12-18T03:34:37;18.20;;;10.33;;
62790;SDS011;48830;53.426;10.300;2022-12-18T03:37:07;20.07;;;10.30;;
62790;SDS011;48830;53.426;10.300;2022-12-18T03:39:34;18.47;;;9.63;;
62790;SDS011;48830;53.426;10.300;2022-12-18T03:55:58;18.00;;;10.10;;
62790;SDS011;48830;53.426;10.300;2022-12-18T03:58:31;19.77;;;10.40;;
62790;SDS011;48830;53.426;10.300;2022-12-18T04:01:12;20.47;;;10.53;;
62790;SDS011;48830;53.426;10.300;2022-12-18T04:03:42;19.93;;;10.33;;
62790;SDS011;48830;53.426;10.300;2022-12-18T04:06:10;18.13;;;9.73;;
62790;SDS011;48830;53.426;10.300;2022-12-18T04:08:38;18.30;;;10.10;;
62790;SDS011;48830;53.426;10.300;2022-12-18T04:11:06;20.97;;;10.23;;
62790;SDS011;48830;53.426;10.300;2022-12-18T04:13:34;23.03;;;11.47;;
62790;SDS011;48830;53.426;10.300;2022-12-18T04:16:04;19.73;;;10.50;;
62790;SDS011;48830;53.426;10.300;2022-12-18T04:18:30;19.93;;;10.97;;
62790;SDS011;48830;53.426;10.300;2022-12-18T04:20:58;23.10;;;11.20;;
62790;SDS011;48830;53.426;10.300;2022-12-18T04:23:24;21.60;;;10.67;;
62790;SDS011;48830;53.426;10.300;2022-12-18T04:25:52;19.77;;;10.60;;
62790;SDS011;48830;53.426;10.300;2022-12-18T04:28:29;15.43;;;9.80;;
62790;SDS011;48830;53.426;10.300;2022-12-18T04:30:55;23.90;;;11.27;;
62790;SDS011;48830;53.426;10.300;2022-12-18T04:33:21;26.27;;;12.33;;
62790;SDS011;48830;53.426;10.300;2022-12-18T04:35:46;23.93;;;11.87;;
62790;SDS011;48830;53.426;10.300;2022-12-18T04:38:12;20.73;;;11.70;;
62790;SDS011;48830;53.426;10.300;2022-12-18T04:40:38;23.60;;;12.30;;
62790;SDS011;48830;53.426;10.300;2022-12-18T04:43:10;20.60;;;11.10;;
62790;SDS011;48830;53.426;10.300;2022-12-18T04:45:36;25.77;;;12.40;;
62790;SDS011;48830;53.426;10.300;2022-12-18T04:48:02;19.43;;;11.07;;
62790;SDS011;48830;53.426;10.300;2022-12-18T04:50:28;25.40;;;12.07;;
62790;SDS011;48830;53.426;10.300;2022-12-18T04:52:54;24.50;;;11.90;;
62790;SDS011;48830;53.426;10.300;2022-12-18T04:55:20;25.47;;;12.23;;
62790;SDS011;48830;53.426;10.300;2022-12-18T04:57:54;20.93;;;11.77;;
62790;SDS011;48830;53.426;10.300;2022-12-18T05:00:20;23.83;;;12.03;;
62790;SDS011;48830;53.426;10.300;2022-12-18T05:02:46;23.57;;;10.90;;
62790;SDS011;48830;53.426;10.300;2022-12-18T05:05:11;21.63;;;12.03;;
62790;SDS011;48830;53.426;10.300;2022-12-18T05:07:36;18.27;;;10.53;;
62790;SDS011;48830;53.426;10.300;2022-12-18T05:10:02;20.93;;;11.63;;
62790;SDS011;48830;53.426;10.300;2022-12-18T05:12:32;21.47;;;10.90;;
62790;SDS011;48830;53.426;10.300;2022-12-18T05:14:57;18.27;;;10.40;;
62790;SDS011;48830;53.426;10.300;2022-12-18T05:17:23;21.10;;;10.23;;
62790;SDS011;48830;53.426;10.300;2022-12-18T05:19:48;20.73;;;11.10;;
62790;SDS011;48830;53.426;10.300;2022-12-18T05:22:14;19.13;;;10.90;;
62790;SDS011;48830;53.426;10.300;2022-12-18T05:24:39;21.90;;;11.40;;
62790;SDS011;48830;53.426;10.300;2022-12-18T05:27:04;23.70;;;12.17;;
62790;SDS011;48830;53.426;10.300;2022-12-18T05:29:30;25.23;;;12.17;;
62790;SDS011;48830;53.426;10.300;2022-12-18T05:31:55;22.03;;;11.10;;
62790;SDS011;48830;53.426;10.300;2022-12-18T05:34:21;22.47;;;10.53;;
62790;SDS011;48830;53.426;10.300;2022-12-18T05:36:46;19.33;;;10.70;;
62790;SDS011;48830;53.426;10.300;2022-12-18T05:39:12;22.83;;;10.30;;
62790;SDS011;48830;53.426;10.300;2022-12-18T05:41:37;23.00;;;11.43;;
62790;SDS011;48830;53.426;10.300;2022-12-18T05:44:03;22.00;;;10.73;;
62790;SDS011;48830;53.426;10.300;2022-12-18T05:46:28;21.07;;;11.23;;
62790;SDS011;48830;53.426;10.300;2022-12-18T05:48:54;23.80;;;12.20;;
62790;SDS011;48830;53.426;10.300;2022-12-18T05:51:20;28.53;;;12.07;;
62790;SDS011;48830;53.426;10.300;2022-12-18T05:53:47;19.53;;;10.80;;
62790;SDS011;48830;53.426;10.300;2022-12-18T05:56:17;20.93;;;10.80;;
62790;SDS011;48830;53.426;10.300;2022-12-18T05:58:44;22.83;;;10.93;;
62790;SDS011;48830;53.426;10.300;2022-12-18T06:01:11;20.47;;;11.67;;
62790;SDS011;48830;53.426;10.300;2022-12-18T06:03:45;24.03;;;10.77;;
62790;SDS011;48830;53.426;10.300;2022-12-18T06:06:14;22.00;;;11.97;;
62790;SDS011;48830;53.426;10.300;2022-12-18T06:08:44;24.33;;;12.23;;
62790;SDS011;48830;53.426;10.300;2022-12-18T06:11:10;24.67;;;12.40;;
62790;SDS011;48830;53.426;10.300;2022-12-18T06:13:36;25.13;;;11.70;;
62790;SDS011;48830;53.426;10.300;2022-12-18T06:16:03;20.23;;;11.17;;
62790;SDS011;48830;53.426;10.300;2022-12-18T06:18:29;24.20;;;12.50;;
62790;SDS011;48830;53.426;10.300;2022-12-18T06:20:55;25.90;;;13.27;;
62790;SDS011;48830;53.426;10.300;2022-12-18T06:23:22;21.40;;;11.10;;
62790;SDS011;48830;53.426;10.300;2022-12-18T06:25:47;23.00;;;12.30;;
62790;SDS011;48830;53.426;10.300;2022-12-18T06:28:13;23.73;;;12.23;;
62790;SDS011;48830;53.426;10.300;2022-12-18T06:30:38;25.67;;;13.30;;
62790;SDS011;48830;53.426;10.300;2022-12-18T06:33:04;24.40;;;12.67;;
62790;SDS011;48830;53.426;10.300;2022-12-18T06:35:29;24.30;;;13.60;;
62790;SDS011;48830;53.426;10.300;2022-12-18T06:37:56;27.57;;;13.10;;
62790;SDS011;48830;53.426;10.300;2022-12-18T06:40:22;27.23;;;13.33;;
62790;SDS011;48830;53.426;10.300;2022-12-18T06:42:47;26.40;;;13.20;;
62790;SDS011;48830;53.426;10.300;2022-12-18T06:45:12;24.40;;;13.63;;
62790;SDS011;48830;53.426;10.300;2022-12-18T06:47:41;25.50;;;13.63;;
62790;SDS011;48830;53.426;10.300;2022-12-18T06:50:06;25.80;;;13.57;;
62790;SDS011;48830;53.426;10.300;2022-12-18T06:52:32;26.03;;;12.77;;
62790;SDS011;48830;53.426;10.300;2022-12-18T06:54:59;26.07;;;12.40;;
62790;SDS011;48830;53.426;10.300;2022-12-18T06:57:25;21.93;;;12.20;;
62790;SDS011;48830;53.426;10.300;2022-12-18T06:59:50;22.57;;;12.30;;
62790;SDS011;48830;53.426;10.300;2022-12-18T07:02:16;24.57;;;12.60;;
62790;SDS011;48830;53.426;10.300;2022-12-18T07:04:41;25.33;;;12.03;;
62790;SDS011;48830;53.426;10.300;2022-12-18T07:07:06;25.77;;;13.20;;
62790;SDS011;48830;53.426;10.300;2022-12-18T07:09:32;26.57;;;12.50;;
62790;SDS011;48830;53.426;10.300;2022-12-18T07:11:57;25.37;;;12.50;;
62790;SDS011;48830;53.426;10.300;2022-12-18T07:14:23;23.53;;;12.37;;
62790;SDS011;48830;53.426;10.300;2022-12-18T07:16:48;24.70;;;12.93;;
62790;SDS011;48830;53.426;10.300;2022-12-18T07:19:13;25.97;;;12.47;;
62790;SDS011;48830;53.426;10.300;2022-12-18T07:21:39;24.43;;;12.97;;
62790;SDS011;48830;53.426;10.300;2022-12-18T07:24:05;26.77;;;13.40;;
62790;SDS011;48830;53.426;10.300;2022-12-18T07:26:30;28.40;;;14.37;;
62790;SDS011;48830;53.426;10.300;2022-12-18T07:28:56;29.13;;;14.17;;
62790;SDS011;48830;53.426;10.300;2022-12-18T07:31:25;26.00;;;13.67;;
62790;SDS011;48830;53.426;10.300;2022-12-18T07:33:51;25.60;;;13.70;;
62790;SDS011;48830;53.426;10.300;2022-12-18T07:36:17;25.27;;;13.17;;
62790;SDS011;48830;53.426;10.300;2022-12-18T07:38:43;26.43;;;13.43;;
62790;SDS011;48830;53.426;10.300;2022-12-18T07:41:12;28.17;;;13.17;;
62790;SDS011;48830;53.426;10.300;2022-12-18T07:43:38;24.37;;;12.40;;
62790;SDS011;48830;53.426;10.300;2022-12-18T07:46:05;26.00;;;12.47;;
62790;SDS011;48830;53.426;10.300;2022-12-18T07:48:31;28.00;;;13.17;;
62790;SDS011;48830;53.426;10.300;2022-12-18T07:51:04;28.90;;;13.77;;
62790;SDS011;48830;53.426;10.300;2022-12-18T07:53:31;28.13;;;13.03;;
62790;SDS011;48830;53.426;10.300;2022-12-18T07:55:59;25.30;;;12.90;;
62790;SDS011;48830;53.426;10.300;2022-12-18T07:58:25;28.13;;;12.73;;
62790;SDS011;48830;53.426;10.300;2022-12-18T08:00:51;26.53;;;12.97;;
62790;SDS011;48830;53.426;10.300;2022-12-18T08:03:17;34.53;;;14.47;;
62790;SDS011;48830;53.426;10.300;2022-12-18T08:05:43;27.33;;;14.40;;
62790;SDS011;48830;53.426;10.300;2022-12-18T08:08:09;27.07;;;12.83;;
62790;SDS011;48830;53.426;10.300;2022-12-18T08:10:34;28.53;;;13.77;;
62790;SDS011;48830;53.426;10.300;2022-12-18T08:13:00;28.73;;;14.53;;
62790;SDS011;48830;53.426;10.300;2022-12-18T08:15:25;27.93;;;13.23;;
62790;SDS011;48830;53.426;10.300;2022-12-18T08:17:50;29.70;;;13.77;;
62790;SDS011;48830;53.426;10.300;2022-12-18T08:20:16;27.70;;;13.80;;
62790;SDS011;48830;53.426;10.300;2022-12-18T08:22:43;28.80;;;13.23;;
62790;SDS011;48830;53.426;10.300;2022-12-18T08:25:09;32.90;;;15.60;;
62790;SDS011;48830;53.426;10.300;2022-12-18T08:27:35;31.73;;;14.90;;
62790;SDS011;48830;53.426;10.300;2022-12-18T08:30:01;28.17;;;13.57;;
62790;SDS011;48830;53.426;10.300;2022-12-18T08:32:27;28.27;;;13.40;;
62790;SDS011;48830;53.426;10.300;2022-12-18T08:34:53;27.67;;;14.13;;
62790;SDS011;48830;53.426;10.300;2022-12-18T08:37:19;28.90;;;14.57;;
62790;SDS011;48830;53.426;10.300;2022-12-18T08:39:44;31.33;;;14.33;;
62790;SDS011;48830;53.426;10.300;2022-12-18T08:42:10;28.27;;;13.03;;
62790;SDS011;48830;53.426;10.300;2022-12-18T08:44:54;36.17;;;17.93;;
62790;SDS011;48830;53.426;10.300;2022-12-18T08:47:19;36.83;;;18.30;;
62790;SDS011;48830;53.426;10.300;2022-12-18T08:49:45;29.40;;;15.13;;
62790;SDS011;48830;53.426;10.300;2022-12-18T08:52:10;24.37;;;13.57;;
62790;SDS011;48830;53.426;10.300;2022-12-18T08:54:41;27.77;;;14.40;;
62790;SDS011;48830;53.426;10.300;2022-12-18T08:57:07;29.07;;;14.43;;
62790;SDS011;48830;53.426;10.300;2022-12-18T08:59:32;27.47;;;13.63;;
62790;SDS011;48830;53.426;10.300;2022-12-18T09:01:58;26.03;;;12.97;;
62790;SDS011;48830;53.426;10.300;2022-12-18T09:04:23;28.37;;;13.93;;
62790;SDS011;48830;53.426;10.300;2022-12-18T09:06:49;30.37;;;13.30;;
62790;SDS011;48830;53.426;10.300;2022-12-18T09:09:14;27.57;;;13.50;;
62790;SDS011;48830;53.426;10.300;2022-12-18T09:11:40;31.30;;;15.30;;
62790;SDS011;48830;53.426;10.300;2022-12-18T09:14:05;27.53;;;13.47;;
62790;SDS011;48830;53.426;10.300;2022-12-18T09:16:31;29.40;;;14.40;;
62790;SDS011;48830;53.426;10.300;2022-12-18T09:18:57;23.87;;;13.17;;
62790;SDS011;48830;53.426;10.300;2022-12-18T09:21:28;36.00;;;17.60;;
62790;SDS011;48830;53.426;10.300;2022-12-18T09:23:58;28.73;;;14.80;;
62790;SDS011;48830;53.426;10.300;2022-12-18T09:26:25;27.23;;;13.80;;
62790;SDS011;48830;53.426;10.300;2022-12-18T09:28:51;29.90;;;14.10;;
62790;SDS011;48830;53.426;10.300;2022-12-18T09:31:17;30.80;;;13.73;;
62790;SDS011;48830;53.426;10.300;2022-12-18T09:33:44;29.70;;;14.67;;
62790;SDS011;48830;53.426;10.300;2022-12-18T09:36:11;29.30;;;14.27;;
62790;SDS011;48830;53.426;10.300;2022-12-18T09:38:38;30.20;;;13.77;;
62790;SDS011;48830;53.426;10.300;2022-12-18T09:41:25;31.50;;;13.80;;
62790;SDS011;48830;53.426;10.300;2022-12-18T09:44:18;27.77;;;13.23;;
62790;SDS011;48830;53.426;10.300;2022-12-18T09:46:53;29.83;;;13.50;;
62790;SDS011;48830;53.426;10.300;2022-12-18T09:49:26;31.10;;;14.40;;
62790;SDS011;48830;53.426;10.300;2022-12-18T09:51:57;26.57;;;14.30;;
62790;SDS011;48830;53.426;10.300;2022-12-18T09:54:32;33.60;;;15.67;;
62790;SDS011;48830;53.426;10.300;2022-12-18T09:57:03;27.20;;;14.50;;
62790;SDS011;48830;53.426;10.300;2022-12-18T09:59:35;31.57;;;14.53;;
62790;SDS011;48830;53.426;10.300;2022-12-18T10:02:12;28.33;;;14.93;;
62790;SDS011;48830;53.426;10.300;2022-12-18T10:05:07;27.03;;;13.73;;
62790;SDS011;48830;53.426;10.300;2022-12-18T10:07:47;25.97;;;13.20;;
62790;SDS011;48830;53.426;10.300;2022-12-18T10:10:37;27.70;;;13.77;;
62790;SDS011;48830;53.426;10.300;2022-12-18T10:13:11;26.83;;;13.27;;
62790;SDS011;48830;53.426;10.300;2022-12-18T10:15:53;25.23;;;13.13;;
62790;SDS011;48830;53.426;10.300;2022-12-18T10:24:12;26.60;;;13.60;;
62790;SDS011;48830;53.426;10.300;2022-12-18T10:26:40;25.70;;;13.27;;
62790;SDS011;48830;53.426;10.300;2022-12-18T10:29:13;30.30;;;14.40;;
62790;SDS011;48830;53.426;10.300;2022-12-18T10:31:40;24.37;;;12.80;;
62790;SDS011;48830;53.426;10.300;2022-12-18T10:34:09;25.50;;;12.87;;
62790;SDS011;48830;53.426;10.300;2022-12-18T10:36:35;20.27;;;12.03;;
62790;SDS011;48830;53.426;10.300;2022-12-18T10:41:43;23.77;;;12.57;;
62790;SDS011;48830;53.426;10.300;2022-12-18T10:44:11;22.67;;;13.43;;
62790;SDS011;48830;53.426;10.300;2022-12-18T10:46:39;25.20;;;13.63;;
62790;SDS011;48830;53.426;10.300;2022-12-18T10:49:07;22.43;;;12.63;;
62790;SDS011;48830;53.426;10.300;2022-12-18T10:54:51;23.90;;;13.23;;
62790;SDS011;48830;53.426;10.300;2022-12-18T10:57:40;22.73;;;12.13;;
62790;SDS011;48830;53.426;10.300;2022-12-18T11:02:52;23.40;;;12.60;;
62790;SDS011;48830;53.426;10.300;2022-12-18T11:05:37;22.23;;;11.73;;
62790;SDS011;48830;53.426;10.300;2022-12-18T11:08:02;25.07;;;13.07;;
62790;SDS011;48830;53.426;10.300;2022-12-18T11:10:30;19.70;;;11.90;;
62790;SDS011;48830;53.426;10.300;2022-12-18T11:13:11;19.73;;;12.30;;
62790;SDS011;48830;53.426;10.300;2022-12-18T11:15:37;24.67;;;12.93;;
62790;SDS011;48830;53.426;10.300;2022-12-18T11:18:14;21.23;;;12.57;;
62790;SDS011;48830;53.426;10.300;2022-12-18T11:20:53;20.00;;;11.87;;
62790;SDS011;48830;53.426;10.300;2022-12-18T11:23:22;21.97;;;12.57;;
62790;SDS011;48830;53.426;10.300;2022-12-18T11:25:53;20.97;;;11.63;;
62790;SDS011;48830;53.426;10.300;2022-12-18T11:28:46;21.37;;;11.90;;
62790;SDS011;48830;53.426;10.300;2022-12-18T11:31:32;20.17;;;11.27;;
62790;SDS011;48830;53.426;10.300;2022-12-18T11:34:05;20.53;;;11.70;;
62790;SDS011;48830;53.426;10.300;2022-12-18T11:36:44;20.50;;;12.07;;
62790;SDS011;48830;53.426;10.300;2022-12-18T11:39:18;20.30;;;11.63;;
62790;SDS011;48830;53.426;10.300;2022-12-18T11:41:52;20.30;;;12.27;;
62790;SDS011;48830;53.426;10.300;2022-12-18T11:53:13;20.60;;;11.53;;
62790;SDS011;48830;53.426;10.300;2022-12-18T11:58:24;21.07;;;11.17;;
62790;SDS011;48830;53.426;10.300;2022-12-18T12:01:13;19.80;;;10.90;;
62790;SDS011;48830;53.426;10.300;2022-12-18T12:03:47;19.80;;;11.70;;
62790;SDS011;48830;53.426;10.300;2022-12-18T12:06:22;19.90;;;11.43;;
62790;SDS011;48830;53.426;10.300;2022-12-18T12:09:09;19.37;;;11.47;;
62790;SDS011;48830;53.426;10.300;2022-12-18T12:12:10;17.97;;;10.37;;
62790;SDS011;48830;53.426;10.300;2022-12-18T12:14:55;20.40;;;12.10;;
62790;SDS011;48830;53.426;10.300;2022-12-18T12:17:38;20.23;;;11.23;;
62790;SDS011;48830;53.426;10.300;2022-12-18T12:26:03;21.97;;;10.60;;
62790;SDS011;48830;53.426;10.300;2022-12-18T12:39:11;21.87;;;10.63;;
62790;SDS011;48830;53.426;10.300;2022-12-18T12:41:42;20.87;;;10.03;;
62790;SDS011;48830;53.426;10.300;2022-12-18T12:44:34;22.70;;;10.83;;
62790;SDS011;48830;53.426;10.300;2022-12-18T12:47:12;22.87;;;11.40;;
62790;SDS011;48830;53.426;10.300;2022-12-18T12:49:45;21.73;;;10.73;;
62790;SDS011;48830;53.426;10.300;2022-12-18T12:52:15;21.73;;;10.70;;
62790;SDS011;48830;53.426;10.300;2022-12-18T12:54:59;20.87;;;10.10;;
62790;SDS011;48830;53.426;10.300;2022-12-18T12:57:43;19.67;;;10.30;;
62790;SDS011;48830;53.426;10.300;2022-12-18T13:00:16;19.33;;;10.07;;
62790;SDS011;48830;53.426;10.300;2022-12-18T13:05:45;21.17;;;10.47;;
62790;SDS011;48830;53.426;10.300;2022-12-18T13:08:24;21.97;;;10.20;;
62790;SDS011;48830;53.426;10.300;2022-12-18T13:10:51;23.43;;;11.67;;
62790;SDS011;48830;53.426;10.300;2022-12-18T13:13:52;20.00;;;10.60;;
62790;SDS011;48830;53.426;10.300;2022-12-18T13:16:23;22.97;;;11.00;;
62790;SDS011;48830;53.426;10.300;2022-12-18T13:18:50;21.13;;;10.50;;
62790;SDS011;48830;53.426;10.300;2022-12-18T13:21:28;22.73;;;11.60;;
62790;SDS011;48830;53.426;10.300;2022-12-18T13:23:56;21.13;;;10.57;;
62790;SDS011;48830;53.426;10.300;2022-12-18T13:26:38;21.87;;;11.33;;
62790;SDS011;48830;53.426;10.300;2022-12-18T13:29:04;22.50;;;11.03;;
62790;SDS011;48830;53.426;10.300;2022-12-18T13:36:40;22.40;;;11.67;;
62790;SDS011;48830;53.426;10.300;2022-12-18T13:41:43;24.07;;;11.67;;
62790;SDS011;48830;53.426;10.300;2022-12-18T13:44:12;25.53;;;12.87;;
62790;SDS011;48830;53.426;10.300;2022-12-18T13:46:48;28.93;;;11.90;;
62790;SDS011;48830;53.426;10.300;2022-12-18T13:51:59;23.03;;;11.00;;
62790;SDS011;48830;53.426;10.300;2022-12-18T13:56:52;24.43;;;12.37;;
62790;SDS011;48830;53.426;10.300;2022-12-18T13:59:22;24.53;;;12.47;;
62790;SDS011;48830;53.426;10.300;2022-12-18T14:04:21;25.90;;;12.37;;
62790;SDS011;48830;53.426;10.300;2022-12-18T14:06:47;25.60;;;11.97;;
62790;SDS011;48830;53.426;10.300;2022-12-18T14:09:17;26.43;;;12.37;;
62790;SDS011;48830;53.426;10.300;2022-12-18T14:11:49;24.27;;;12.10;;
62790;SDS011;48830;53.426;10.300;2022-12-18T14:14:16;27.13;;;13.30;;
62790;SDS011;48830;53.426;10.300;2022-12-18T14:16:43;29.13;;;12.97;;
62790;SDS011;48830;53.426;10.300;2022-12-18T14:19:15;26.20;;;13.00;;
62790;SDS011;48830;53.426;10.300;2022-12-18T14:21:46;26.43;;;12.83;;
62790;SDS011;48830;53.426;10.300;2022-12-18T14:24:14;29.23;;;12.90;;
62790;SDS011;48830;53.426;10.300;2022-12-18T14:26:44;30.97;;;13.43;;
62790;SDS011;48830;53.426;10.300;2022-12-18T14:29:23;30.23;;;12.57;;
62790;SDS011;48830;53.426;10.300;2022-12-18T14:32:07;24.90;;;12.30;;
62790;SDS011;48830;53.426;10.300;2022-12-18T14:34:33;29.10;;;13.80;;
62790;SDS011;48830;53.426;10.300;2022-12-18T14:36:58;30.80;;;13.73;;
62790;SDS011;48830;53.426;10.300;2022-12-18T14:39:24;26.93;;;13.70;;
62790;SDS011;48830;53.426;10.300;2022-12-18T14:41:50;27.30;;;12.70;;
62790;SDS011;48830;53.426;10.300;2022-12-18T14:44:16;29.23;;;12.87;;
62790;SDS011;48830;53.426;10.300;2022-12-18T14:46:45;28.03;;;12.50;;
62790;SDS011;48830;53.426;10.300;2022-12-18T14:49:19;29.27;;;13.67;;
62790;SDS011;48830;53.426;10.300;2022-12-18T14:51:48;29.00;;;13.23;;
62790;SDS011;48830;53.426;10.300;2022-12-18T14:54:17;29.80;;;13.50;;
62790;SDS011;48830;53.426;10.300;2022-12-18T14:56:45;28.00;;;12.83;;
62790;SDS011;48830;53.426;10.300;2022-12-18T14:59:23;28.03;;;12.30;;
62790;SDS011;48830;53.426;10.300;2022-12-18T15:04:32;34.73;;;16.13;;
62790;SDS011;48830;53.426;10.300;2022-12-18T15:07:12;38.87;;;17.63;;
62790;SDS011;48830;53.426;10.300;2022-12-18T15:09:39;27.33;;;14.03;;
62790;SDS011;48830;53.426;10.300;2022-12-18T15:12:19;37.50;;;17.97;;
62790;SDS011;48830;53.426;10.300;2022-12-18T15:14:50;32.87;;;14.87;;
62790;SDS011;48830;53.426;10.300;2022-12-18T15:17:19;35.17;;;15.37;;
62790;SDS011;48830;53.426;10.300;2022-12-18T15:19:47;34.43;;;16.47;;
62790;SDS011;48830;53.426;10.300;2022-12-18T15:24:43;36.43;;;15.77;;
62790;SDS011;48830;53.426;10.300;2022-12-18T15:27:22;31.90;;;15.27;;
62790;SDS011;48830;53.426;10.300;2022-12-18T15:29:59;36.90;;;15.20;;
62790;SDS011;48830;53.426;10.300;2022-12-18T15:32:27;29.40;;;14.00;;
62790;SDS011;48830;53.426;10.300;2022-12-18T15:37:49;29.53;;;13.37;;
62790;SDS011;48830;53.426;10.300;2022-12-18T15:40:20;32.10;;;14.20;;
62790;SDS011;48830;53.426;10.300;2022-12-18T15:42:47;32.40;;;14.30;;
62790;SDS011;48830;53.426;10.300;2022-12-18T15:45:32;30.57;;;14.27;;
62790;SDS011;48830;53.426;10.300;2022-12-18T15:47:58;31.10;;;14.03;;
62790;SDS011;48830;53.426;10.300;2022-12-18T15:50:24;37.57;;;14.30;;
62790;SDS011;48830;53.426;10.300;2022-12-18T15:52:50;32.00;;;14.77;;
62790;SDS011;48830;53.426;10.300;2022-12-18T15:55:18;32.83;;;15.03;;
62790;SDS011;48830;53.426;10.300;2022-12-18T15:58:04;32.63;;;13.80;;
62790;SDS011;48830;53.426;10.300;2022-12-18T16:00:31;38.23;;;16.10;;
62790;SDS011;48830;53.426;10.300;2022-12-18T16:02:57;31.00;;;14.47;;
62790;SDS011;48830;53.426;10.300;2022-12-18T16:05:23;36.17;;;15.00;;